Time,TemperatureF,DewpointF,PressureIn,WindDirection,WindDirectionDegrees,WindSpeedMPH,WindSpeedGustMPH,Humidity,HourlyPrecipIn,Conditions,Clouds,dailyrainin,SoftwareType,DateUTC
2013-02-24 00:15:00,34.3,32.0,30.16,North,-999,0.0,0.0,91,0.00,,,0.00,pywws,2013-02-24 05:15:00,
2013-02-24 00:45:00,33.6,32.1,30.18,West,270,0.7,1.6,94,0.00,,,0.00,pywws,2013-02-24 05:45:00,
2013-02-24 01:15:00,34.3,33.3,30.19,North,-999,0.0,0.7,96,0.00,,,0.00,pywws,2013-02-24 06:15:00,
2013-02-24 01:45:00,35.4,34.1,30.20,North,-999,0.0,1.6,95,0.00,,,0.00,pywws,2013-02-24 06:45:00,
2013-02-24 02:15:00,34.5,33.0,30.19,North,-999,0.0,0.0,94,0.00,,,0.00,pywws,2013-02-24 07:15:00,
2013-02-24 02:45:00,33.6,32.3,30.17,North,-999,0.0,0.0,95,0.00,,,0.00,pywws,2013-02-24 07:45:00,
2013-02-24 03:15:00,33.1,32.1,30.18,North,-999,0.0,0.7,96,0.00,,,0.00,pywws,2013-02-24 08:15:00,
2013-02-24 03:45:00,32.2,31.2,30.18,North,-999,0.0,0.0,96,0.00,,,0.00,pywws,2013-02-24 08:45:00,
2013-02-24 04:15:00,32.7,32.2,30.19,North,-999,0.0,1.6,98,0.00,,,0.00,pywws,2013-02-24 09:15:00,
2013-02-24 04:45:00,33.3,32.8,30.18,North,-999,0.0,0.0,98,0.00,,,0.00,pywws,2013-02-24 09:45:00,
2013-02-24 05:15:00,33.6,33.1,30.20,North,-999,0.0,0.0,98,0.00,,,0.00,pywws,2013-02-24 10:15:00,
2013-02-24 05:45:00,33.8,33.3,30.20,North,-999,0.0,0.7,98,0.00,,,0.00,pywws,2013-02-24 10:45:00,
2013-02-24 06:15:00,34.5,33.8,30.21,West,270,4.5,10.7,97,0.00,,,0.00,pywws,2013-02-24 11:15:00,
2013-02-24 06:45:00,37.4,31.5,30.22,East,90,0.7,2.2,79,0.00,,,0.00,pywws,2013-02-24 11:45:00,
2013-02-24 07:15:00,37.9,28.3,30.23,NE,45,0.7,2.2,68,0.00,,,0.00,pywws,2013-02-24 12:15:00,
2013-02-24 07:45:00,37.9,28.0,30.23,WNW,292,1.6,3.1,67,0.00,,,0.00,pywws,2013-02-24 12:45:00,
2013-02-24 08:15:00,38.1,27.0,30.25,SW,225,3.1,5.4,64,0.00,,,0.00,pywws,2013-02-24 13:15:00,
2013-02-24 08:45:00,38.1,26.7,30.26,NE,45,0.7,3.1,63,0.00,,,0.00,pywws,2013-02-24 13:45:00,
2013-02-24 09:15:00,37.8,25.5,30.27,SW,225,0.7,3.8,61,0.00,,,0.00,pywws,2013-02-24 14:15:00,
2013-02-24 09:45:00,37.6,25.0,30.28,SW,225,4.5,8.3,60,0.00,,,0.00,pywws,2013-02-24 14:45:00,
2013-02-24 10:15:00,37.9,25.3,30.28,NW,315,3.1,7.6,60,0.00,,,0.00,pywws,2013-02-24 15:15:00,
2013-02-24 10:45:00,39.7,25.3,30.27,NW,315,2.2,4.5,56,0.00,,,0.00,pywws,2013-02-24 15:45:00,
2013-02-24 11:15:00,39.9,24.6,30.27,SE,135,4.5,8.3,54,0.00,,,0.00,pywws,2013-02-24 16:15:00,
2013-02-24 11:45:00,40.8,25.9,30.27,North,0,0.7,2.2,55,0.00,,,0.00,pywws,2013-02-24 16:45:00,
2013-02-24 12:15:00,39.9,25.1,30.27,SE,135,4.5,9.8,55,0.00,,,0.00,pywws,2013-02-24 17:15:00,
2013-02-24 12:45:00,39.0,25.5,30.28,NW,315,5.4,9.8,58,0.00,,,0.00,pywws,2013-02-24 17:45:00,
2013-02-24 13:15:00,39.0,25.9,30.27,SW,225,3.1,4.5,59,0.00,,,0.00,pywws,2013-02-24 18:15:00,
2013-02-24 13:45:00,37.9,25.7,30.28,SW,225,3.8,6.9,61,0.00,,,0.00,pywws,2013-02-24 18:45:00,
2013-02-24 14:15:00,37.2,24.6,30.29,West,270,2.2,4.5,60,0.00,,,0.00,pywws,2013-02-24 19:15:00,
2013-02-24 14:45:00,35.8,23.7,30.31,North,-999,0.0,2.2,61,0.00,,,0.00,pywws,2013-02-24 19:45:00,
2013-02-24 15:15:00,35.2,23.2,30.32,NW,315,2.2,3.8,61,0.00,,,0.00,pywws,2013-02-24 20:15:00,
2013-02-24 15:45:00,34.7,23.8,30.33,NE,45,2.2,3.8,64,0.00,,,0.00,pywws,2013-02-24 20:45:00,
2013-02-24 16:15:00,34.3,24.2,30.35,North,0,3.1,6.0,66,0.00,,,0.00,pywws,2013-02-24 21:15:00,
2013-02-24 16:45:00,33.8,24.0,30.36,NW,315,3.8,6.9,67,0.00,,,0.00,pywws,2013-02-24 21:45:00,
2013-02-24 17:15:00,33.8,23.3,30.37,North,0,0.7,2.2,65,0.00,,,0.00,pywws,2013-02-24 22:15:00,
2013-02-24 17:45:00,33.3,23.9,30.39,South,180,3.8,5.4,68,0.00,,,0.00,pywws,2013-02-24 22:45:00,
2013-02-24 18:15:00,32.7,23.3,30.40,East,90,0.7,2.2,68,0.00,,,0.00,pywws,2013-02-24 23:15:00,
2013-02-24 18:45:00,32.4,22.3,30.42,South,180,1.6,3.1,66,0.00,,,0.00,pywws,2013-02-24 23:45:00,
2013-02-24 19:15:00,32.5,20.2,30.43,West,270,1.6,2.2,60,0.00,,,0.00,pywws,2013-02-25 00:15:00,
2013-02-24 19:45:00,32.5,20.2,30.45,SE,135,0.7,2.2,60,0.00,,,0.00,pywws,2013-02-25 00:45:00,
2013-02-24 20:15:00,32.5,19.4,30.45,NW,315,3.1,4.5,58,0.00,,,0.00,pywws,2013-02-25 01:15:00,
2013-02-24 20:45:00,32.7,19.2,30.46,North,0,1.6,3.1,57,0.00,,,0.00,pywws,2013-02-25 01:45:00,
2013-02-24 21:15:00,32.7,20.0,30.45,SW,225,1.6,3.8,59,0.00,,,0.00,pywws,2013-02-25 02:15:00,
2013-02-24 21:45:00,32.4,20.0,30.46,NE,45,0.7,2.2,60,0.00,,,0.00,pywws,2013-02-25 02:45:00,
2013-02-24 22:15:00,32.0,20.1,30.46,North,-999,0.0,0.7,61,0.00,,,0.00,pywws,2013-02-25 03:15:00,
2013-02-24 22:45:00,31.8,20.7,30.45,WSW,248,2.2,6.9,63,0.00,,,0.00,pywws,2013-02-25 03:45:00,
2013-02-24 23:15:00,31.3,20.9,30.45,North,-999,0.0,1.6,65,0.00,,,0.00,pywws,2013-02-25 04:15:00,
2013-02-24 23:45:00,30.0,21.1,30.46,SW,225,0.7,1.6,69,0.00,,,0.00,pywws,2013-02-25 04:45:00,